Medburyville, Vermont
Current Conditions -  °F | °C
As of 1:54 AM on Monday 22 Dec 2014 (Local Time) from KDDH Reporting Station
Haze Haze  
Wind Chill: -2°   Ceiling: 3700
Heat Index: -2°   Visibility: 4mi
Dew Point: -4°   Wind: 0mph
Humidity: 88%   Direction: NA
Pressure: 30.33"   Gusts: NA
Location:  42.883°N, 72.8981°W
Report Text: KDDH 220654Z AUTO 00000KT 4SM BR FEW025 OVC037 M02/M04 A3033 RMK AO2 SLP280 T10221039
Loading
Personal Weather Stations






























Interactive Weather Map New forecast layout! Learn more

10-Day Weather Forecast

Advertisements
Track Severe Weather on mobile